createdAt,value
2022-08-31T00:01:05.253Z,55.32
2022-08-31T00:03:54.276Z,55.31
2022-08-31T00:06:24.008Z,55.44
2022-08-31T00:08:56.384Z,55.48
2022-08-31T00:11:31.096Z,55.52
2022-08-31T00:14:05.920Z,55.51
2022-08-31T00:16:38.589Z,55.52
2022-08-31T00:19:11.799Z,55.56
2022-08-31T00:21:44.685Z,55.58
2022-08-31T00:24:14.611Z,55.51
2022-08-31T00:26:46.480Z,55.48
2022-08-31T00:29:17.140Z,55.57
2022-08-31T00:31:48.736Z,55.68
2022-08-31T00:34:19.441Z,55.69
2022-08-31T00:36:49.492Z,55.75
2022-08-31T00:39:19.569Z,55.83
2022-08-31T00:41:50.444Z,55.88
2022-08-31T00:44:20.142Z,55.93
2022-08-31T00:46:49.983Z,55.95
2022-08-31T00:49:26.732Z,55.99
2022-08-31T00:52:09.581Z,56.09
2022-08-31T00:54:55.400Z,56.10
2022-08-31T00:57:30.085Z,56.18
2022-08-31T01:00:01.030Z,56.30
2022-08-31T01:02:32.194Z,56.33
2022-08-31T01:05:02.529Z,56.39
2022-08-31T01:07:33.800Z,56.50
2022-08-31T01:10:05.861Z,56.55
2022-08-31T01:12:37.147Z,56.59
2022-08-31T01:15:08.232Z,56.61
2022-08-31T01:17:38.618Z,56.66
2022-08-31T01:20:19.481Z,56.69
2022-08-31T01:23:11.932Z,56.77
2022-08-31T01:25:43.890Z,56.88
2022-08-31T01:28:14.691Z,56.99
2022-08-31T01:31:05.069Z,57.09
2022-08-31T01:33:38.032Z,57.18
2022-08-31T01:36:11.160Z,57.29
2022-08-31T01:38:40.827Z,57.35
2022-08-31T01:41:12.992Z,57.45
2022-08-31T01:43:45.036Z,57.55
2022-08-31T01:46:15.917Z,57.78
2022-08-31T01:48:46.575Z,58.01
2022-08-31T01:51:18.045Z,58.37
2022-08-31T01:53:48.828Z,58.78
2022-08-31T01:56:23.686Z,59.22
2022-08-31T01:58:53.227Z,59.56
2022-08-31T02:01:45.736Z,59.85
2022-08-31T02:04:18.344Z,60.01
2022-08-31T02:06:51.749Z,60.21
2022-08-31T02:09:22.802Z,60.30
2022-08-31T02:11:53.505Z,60.47
2022-08-31T02:14:23.338Z,60.68
2022-08-31T02:16:53.966Z,60.95
2022-08-31T02:19:24.819Z,61.12
2022-08-31T02:21:56.521Z,61.35
2022-08-31T02:24:26.769Z,61.40
2022-08-31T02:26:59.730Z,61.43
2022-08-31T02:29:30.317Z,61.46
2022-08-31T02:32:02.428Z,61.53
2022-08-31T02:34:33.442Z,61.62
2022-08-31T02:37:04.656Z,61.86
2022-08-31T02:39:34.878Z,62.11
2022-08-31T02:42:06.220Z,62.39
2022-08-31T02:44:39.913Z,62.67
2022-08-31T02:47:10.150Z,62.85
2022-08-31T02:49:44.369Z,62.94
2022-08-31T02:52:16.001Z,63.11
2022-08-31T02:54:47.038Z,63.26
2022-08-31T02:57:18.808Z,63.53
2022-08-31T02:59:50.342Z,63.76
2022-08-31T03:02:22.944Z,64.03
2022-08-31T03:04:55.244Z,64.36
2022-08-31T03:07:27.800Z,64.64
2022-08-31T03:10:01.788Z,64.83
2022-08-31T03:12:34.019Z,64.90
2022-08-31T03:15:07.761Z,64.99
2022-08-31T03:17:37.633Z,65.14
2022-08-31T03:20:11.071Z,65.28
2022-08-31T03:22:45.643Z,65.45
2022-08-31T03:25:17.257Z,65.50
2022-08-31T03:27:47.442Z,65.51
2022-08-31T03:30:19.505Z,65.52
2022-08-31T03:32:55.065Z,65.65
2022-08-31T03:35:29.554Z,65.81
2022-08-31T03:38:03.039Z,65.97
2022-08-31T03:40:34.301Z,66.16
2022-08-31T03:43:04.887Z,66.32
2022-08-31T03:45:35.412Z,66.44
2022-08-31T03:48:12.009Z,66.52
2022-08-31T03:50:39.322Z,66.62
2022-08-31T03:53:12.937Z,66.77
2022-08-31T03:55:43.400Z,66.97
2022-08-31T03:58:13.919Z,67.01
2022-08-31T04:00:45.654Z,67.02
2022-08-31T04:03:17.451Z,66.93
2022-08-31T04:06:10.145Z,66.74
2022-08-31T04:08:58.118Z,66.63
2022-08-31T04:11:44.752Z,66.60
2022-08-31T04:14:26.702Z,66.57
2022-08-31T04:17:17.384Z,66.54
2022-08-31T04:19:49.442Z,66.48
2022-08-31T04:22:22.119Z,66.46
2022-08-31T04:24:56.024Z,66.44
2022-08-31T04:27:26.775Z,66.46
2022-08-31T04:29:57.175Z,66.40
2022-08-31T04:32:27.326Z,66.28
2022-08-31T04:34:59.526Z,66.13
2022-08-31T04:37:29.444Z,65.90
2022-08-31T04:40:03.654Z,65.75
2022-08-31T04:42:38.089Z,65.58
2022-08-31T04:45:09.341Z,65.51
2022-08-31T04:47:41.983Z,65.42
2022-08-31T04:50:13.543Z,65.31
2022-08-31T04:53:03.068Z,65.32
2022-08-31T04:55:20.380Z,65.19
2022-08-31T04:57:51.242Z,65.06
2022-08-31T05:00:22.405Z,64.94
2022-08-31T05:03:10.287Z,64.91
2022-08-31T05:05:41.195Z,64.83
2022-08-31T05:08:12.501Z,64.80
2022-08-31T05:10:42.883Z,64.68
2022-08-31T05:13:13.654Z,64.62
2022-08-31T05:15:43.892Z,64.56
2022-08-31T05:18:16.898Z,64.51
2022-08-31T05:20:49.492Z,64.37
2022-08-31T05:23:21.025Z,64.22
2022-08-31T05:25:50.980Z,64.17
2022-08-31T05:28:23.193Z,64.13
2022-08-31T05:30:53.355Z,64.19
2022-08-31T05:33:26.058Z,64.16
2022-08-31T05:35:56.851Z,64.07
2022-08-31T05:38:28.119Z,63.92
2022-08-31T05:41:00.793Z,63.83
2022-08-31T05:43:31.388Z,63.70
2022-08-31T05:46:05.646Z,63.65
2022-08-31T05:48:36.204Z,63.71
2022-08-31T05:51:08.504Z,63.83
2022-08-31T05:53:40.711Z,63.62
2022-08-31T05:56:23.382Z,63.55
2022-08-31T05:58:53.904Z,63.56
2022-08-31T06:01:34.290Z,63.55
2022-08-31T06:04:08.147Z,63.47
2022-08-31T06:06:38.968Z,63.43
2022-08-31T06:09:11.422Z,63.17
2022-08-31T06:11:42.027Z,62.99
2022-08-31T06:14:13.370Z,62.79
2022-08-31T06:16:45.092Z,62.70
2022-08-31T06:19:17.436Z,62.70
2022-08-31T06:21:51.500Z,62.64
2022-08-31T06:24:30.773Z,62.60
2022-08-31T06:27:01.517Z,62.60
2022-08-31T06:29:33.617Z,62.42
2022-08-31T06:32:08.237Z,62.43
2022-08-31T06:34:42.525Z,62.21
2022-08-31T06:37:21.261Z,62.13
2022-08-31T06:39:54.391Z,61.85
2022-08-31T06:42:29.528Z,61.26
2022-08-31T06:45:07.590Z,61.26
2022-08-31T06:47:40.122Z,61.19
2022-08-31T06:50:13.655Z,60.90
2022-08-31T06:52:45.250Z,60.41
2022-08-31T06:55:35.353Z,60.29
2022-08-31T06:58:25.071Z,60.08
2022-08-31T07:01:13.760Z,59.79
2022-08-31T07:03:50.371Z,59.49
2022-08-31T07:06:22.443Z,58.94
2022-08-31T07:08:56.631Z,58.36
2022-08-31T07:11:32.912Z,57.90
2022-08-31T07:14:04.574Z,56.64
2022-08-31T07:16:36.372Z,55.69
2022-08-31T07:19:06.646Z,55.10
2022-08-31T07:21:46.190Z,54.67
2022-08-31T07:24:20.869Z,54.42
2022-08-31T07:26:57.682Z,54.39
2022-08-31T07:29:34.423Z,54.60
2022-08-31T07:32:03.869Z,54.64
2022-08-31T07:34:33.736Z,54.53
2022-08-31T07:37:18.296Z,54.43
2022-08-31T07:40:08.259Z,54.42
2022-08-31T07:42:44.607Z,54.43
2022-08-31T07:45:27.951Z,54.32
2022-08-31T07:48:00.405Z,54.04
2022-08-31T07:50:33.008Z,53.87
2022-08-31T07:53:07.456Z,53.86
2022-08-31T07:55:47.991Z,53.72
2022-08-31T07:58:35.619Z,53.68
2022-08-31T08:01:06.502Z,53.46
2022-08-31T08:03:36.174Z,53.06
2022-08-31T08:06:25.800Z,52.50
2022-08-31T08:09:24.028Z,51.37
2022-08-31T08:11:46.813Z,50.86
2022-08-31T08:14:38.560Z,49.77
2022-08-31T08:17:25.545Z,49.14
2022-08-31T08:19:56.391Z,49.37
2022-08-31T08:22:50.968Z,48.39
2022-08-31T08:25:13.216Z,46.51
2022-08-31T08:27:51.895Z,46.50
2022-08-31T08:30:25.603Z,45.57
2022-08-31T08:32:55.046Z,45.21
2022-08-31T08:35:26.858Z,45.53
2022-08-31T08:37:59.001Z,45.99
2022-08-31T08:40:43.970Z,46.51
2022-08-31T08:43:16.202Z,46.47
2022-08-31T08:45:49.632Z,46.56
2022-08-31T08:48:22.336Z,46.14
2022-08-31T08:50:53.926Z,45.83
2022-08-31T08:53:28.756Z,45.36
2022-08-31T08:56:17.254Z,45.21
2022-08-31T08:58:35.657Z,45.94
2022-08-31T09:01:07.754Z,46.71
2022-08-31T09:03:46.518Z,47.44
2022-08-31T09:06:48.307Z,47.36
2022-08-31T09:09:35.097Z,47.58
2022-08-31T09:12:29.326Z,47.77
2022-08-31T09:15:14.793Z,48.12
2022-08-31T09:18:05.556Z,48.41
2022-08-31T09:20:35.324Z,48.35
2022-08-31T09:23:06.907Z,48.43
2022-08-31T09:25:50.162Z,48.00
2022-08-31T09:28:44.382Z,47.58
2022-08-31T09:31:38.073Z,47.42
2022-08-31T09:34:12.374Z,47.60
2022-08-31T09:36:42.687Z,48.33
2022-08-31T09:39:21.602Z,48.54
2022-08-31T09:41:50.868Z,48.40
2022-08-31T09:44:34.038Z,48.97
2022-08-31T09:47:06.860Z,48.97
2022-08-31T09:49:38.344Z,48.05
2022-08-31T09:52:24.027Z,47.18
2022-08-31T09:55:17.882Z,46.56
2022-08-31T09:58:07.848Z,46.44
2022-08-31T10:00:42.078Z,46.47
2022-08-31T10:03:25.868Z,46.78
2022-08-31T10:05:57.575Z,47.24
2022-08-31T10:08:50.263Z,47.63
2022-08-31T10:11:23.453Z,47.90
2022-08-31T10:14:04.873Z,47.75
2022-08-31T10:16:43.211Z,47.92
2022-08-31T10:19:28.429Z,48.01
2022-08-31T10:22:05.003Z,47.70
2022-08-31T10:24:48.815Z,47.42
2022-08-31T10:27:28.487Z,47.42
2022-08-31T10:30:06.861Z,46.99
2022-08-31T10:32:45.578Z,46.14
2022-08-31T10:35:55.920Z,46.06
2022-08-31T10:38:37.416Z,45.89
2022-08-31T10:41:22.013Z,45.24
2022-08-31T10:44:19.894Z,45.72
2022-08-31T10:46:53.980Z,46.08
2022-08-31T10:49:26.132Z,46.50
2022-08-31T10:52:09.443Z,46.86
2022-08-31T10:54:48.343Z,46.94
2022-08-31T10:57:43.451Z,46.65
2022-08-31T11:00:42.853Z,46.92
2022-08-31T11:03:27.848Z,46.41
2022-08-31T11:06:19.792Z,46.29
2022-08-31T11:08:58.865Z,45.69
2022-08-31T11:11:46.193Z,46.35
2022-08-31T11:14:53.612Z,46.57
2022-08-31T11:17:52.058Z,47.07
2022-08-31T11:21:06.521Z,47.33
2022-08-31T11:23:56.226Z,47.87
2022-08-31T11:26:51.401Z,47.80
2022-08-31T11:29:46.893Z,47.60
2022-08-31T11:32:39.767Z,47.77
2022-08-31T11:35:10.986Z,47.94
2022-08-31T11:37:52.479Z,47.89
2022-08-31T11:40:46.690Z,47.79
2022-08-31T11:43:44.090Z,47.38
2022-08-31T11:46:28.503Z,46.71
2022-08-31T11:48:59.589Z,46.62
2022-08-31T11:51:45.867Z,46.22
2022-08-31T11:54:26.608Z,46.20
2022-08-31T11:56:57.257Z,46.97
2022-08-31T11:59:36.600Z,46.19
2022-08-31T12:02:26.846Z,45.88
2022-08-31T12:04:58.597Z,45.46
2022-08-31T12:07:42.428Z,45.47
2022-08-31T12:10:34.348Z,45.59
2022-08-31T12:13:31.048Z,45.64
2022-08-31T12:16:06.637Z,45.58
2022-08-31T12:19:44.761Z,45.66
2022-08-31T12:23:10.488Z,45.38
2022-08-31T12:26:20.046Z,44.91
2022-08-31T12:29:28.186Z,44.53
2022-08-31T12:32:35.708Z,45.03
2022-08-31T12:35:24.864Z,44.64
2022-08-31T12:38:10.200Z,44.38
2022-08-31T12:40:47.326Z,44.92
2022-08-31T12:43:40.588Z,44.82
2022-08-31T12:46:59.601Z,44.65
2022-08-31T12:49:47.088Z,44.36
2022-08-31T12:52:37.159Z,43.67
2022-08-31T12:55:38.518Z,43.40
2022-08-31T12:58:41.244Z,43.00
2022-08-31T13:01:17.291Z,42.74
2022-08-31T13:03:54.246Z,42.95
2022-08-31T13:06:32.382Z,43.14
2022-08-31T13:09:04.103Z,43.39
2022-08-31T13:11:42.102Z,43.38
2022-08-31T13:14:27.362Z,42.94
2022-08-31T13:17:16.200Z,42.89
2022-08-31T13:19:57.319Z,43.20
2022-08-31T13:22:33.195Z,42.95
2022-08-31T13:25:21.835Z,42.98
2022-08-31T13:27:52.557Z,43.16
2022-08-31T13:30:25.502Z,42.75
2022-08-31T13:32:55.108Z,43.15
2022-08-31T13:35:28.251Z,43.42
2022-08-31T13:38:05.946Z,43.48
2022-08-31T13:40:39.261Z,43.31
2022-08-31T13:43:11.250Z,43.18
2022-08-31T13:45:52.519Z,43.40
2022-08-31T13:48:34.775Z,43.53
2022-08-31T13:51:20.161Z,42.68
2022-08-31T13:54:04.640Z,42.68
2022-08-31T13:56:59.176Z,42.79
2022-08-31T13:59:33.492Z,42.90
2022-08-31T14:02:19.607Z,42.74
2022-08-31T14:04:57.815Z,42.59
2022-08-31T14:07:44.014Z,42.76
2022-08-31T14:10:19.173Z,42.40
2022-08-31T14:12:57.105Z,42.28
2022-08-31T14:15:56.172Z,42.41
2022-08-31T14:18:29.959Z,42.65
2022-08-31T14:21:20.934Z,42.72
2022-08-31T14:24:03.976Z,42.76
2022-08-31T14:26:37.694Z,42.82
2022-08-31T14:29:12.176Z,43.10
2022-08-31T14:31:52.730Z,42.65
2022-08-31T14:34:32.655Z,42.53
2022-08-31T14:37:07.518Z,41.94
2022-08-31T14:39:47.265Z,41.39
2022-08-31T14:42:36.969Z,41.11
2022-08-31T14:45:18.266Z,40.95
2022-08-31T14:47:52.117Z,40.81
2022-08-31T14:50:25.247Z,41.02
2022-08-31T14:52:57.526Z,41.12
2022-08-31T14:55:31.118Z,41.02
2022-08-31T14:58:07.079Z,40.96
2022-08-31T15:00:41.650Z,40.17
2022-08-31T15:03:17.159Z,40.27
2022-08-31T15:05:48.811Z,40.38
2022-08-31T15:08:20.153Z,39.60
2022-08-31T15:10:54.401Z,39.78
2022-08-31T15:13:26.811Z,39.76
2022-08-31T15:15:59.802Z,40.40
2022-08-31T15:18:33.410Z,40.05
2022-08-31T15:21:05.434Z,40.02
2022-08-31T15:23:36.939Z,40.19
2022-08-31T15:26:11.021Z,40.17
2022-08-31T15:28:42.871Z,40.46
2022-08-31T15:31:24.849Z,40.68
2022-08-31T15:33:57.630Z,41.15
2022-08-31T15:36:28.136Z,40.76
2022-08-31T15:38:59.874Z,40.66
2022-08-31T15:41:37.641Z,40.57
2022-08-31T15:44:11.940Z,40.27
2022-08-31T15:47:02.173Z,40.38
2022-08-31T15:49:33.652Z,40.21
2022-08-31T15:52:06.836Z,40.33
2022-08-31T15:54:38.846Z,40.77
2022-08-31T15:57:08.254Z,40.67
2022-08-31T15:59:42.807Z,40.88
2022-08-31T16:02:13.729Z,41.10
2022-08-31T16:04:43.204Z,41.35
2022-08-31T16:07:13.361Z,41.51
2022-08-31T16:09:47.322Z,41.55
2022-08-31T16:12:18.441Z,41.60
2022-08-31T16:14:51.270Z,41.69
2022-08-31T16:17:21.131Z,41.44
2022-08-31T16:19:51.258Z,40.66
2022-08-31T16:22:22.329Z,40.35
2022-08-31T16:24:54.664Z,40.29
2022-08-31T16:27:24.650Z,40.15
2022-08-31T16:29:54.127Z,40.30
2022-08-31T16:32:25.288Z,40.45
2022-08-31T16:34:54.723Z,40.62
2022-08-31T16:37:24.929Z,40.85
2022-08-31T16:39:55.224Z,40.92
2022-08-31T16:42:25.210Z,41.21
2022-08-31T16:44:59.735Z,41.32
2022-08-31T16:47:27.136Z,41.20
2022-08-31T16:49:59.220Z,41.17
2022-08-31T16:52:30.780Z,41.26
2022-08-31T16:54:59.891Z,41.40
2022-08-31T16:57:30.039Z,41.51
2022-08-31T17:00:00.684Z,41.44
2022-08-31T17:02:35.146Z,41.32
2022-08-31T17:05:05.758Z,41.39
2022-08-31T17:07:36.512Z,41.42
2022-08-31T17:10:07.461Z,41.43
2022-08-31T17:12:40.959Z,41.52
2022-08-31T17:15:13.263Z,41.48
2022-08-31T17:17:44.981Z,41.37
2022-08-31T17:20:16.060Z,41.28
2022-08-31T17:22:48.415Z,41.11
2022-08-31T17:25:18.562Z,41.24
2022-08-31T17:27:51.199Z,41.38
2022-08-31T17:30:23.244Z,41.57
2022-08-31T17:32:54.357Z,41.69
2022-08-31T17:35:25.897Z,41.68
2022-08-31T17:37:56.226Z,41.70
2022-08-31T17:42:59.951Z,41.76
2022-08-31T17:45:31.885Z,41.86
2022-08-31T17:48:01.530Z,42.06
2022-08-31T17:50:32.486Z,42.13
2022-08-31T17:53:03.622Z,42.16
2022-08-31T17:55:34.502Z,42.36
2022-08-31T17:58:06.910Z,42.40
2022-08-31T18:00:36.908Z,42.46
2022-08-31T18:03:07.478Z,42.54
2022-08-31T18:05:41.907Z,42.53
2022-08-31T18:08:10.174Z,42.70
2022-08-31T18:10:41.433Z,42.71
2022-08-31T18:13:11.565Z,42.70
2022-08-31T18:15:41.520Z,42.70
2022-08-31T18:18:12.011Z,42.72
2022-08-31T18:20:41.684Z,42.82
2022-08-31T18:23:11.701Z,43.02
2022-08-31T18:25:42.953Z,43.25
2022-08-31T18:28:12.974Z,43.34
2022-08-31T18:30:42.642Z,43.34
2022-08-31T18:33:15.111Z,43.56
2022-08-31T18:35:50.514Z,43.68
2022-08-31T18:38:22.041Z,43.80
2022-08-31T18:41:10.323Z,43.71
2022-08-31T18:43:59.427Z,43.82
2022-08-31T18:46:28.727Z,43.99
2022-08-31T18:49:11.895Z,44.10
2022-08-31T18:51:31.050Z,44.20
2022-08-31T18:54:00.744Z,44.42
2022-08-31T18:56:29.847Z,44.37
2022-08-31T18:59:00.099Z,44.53
2022-08-31T19:01:33.482Z,44.59
2022-08-31T19:04:03.896Z,44.69
2022-08-31T19:06:34.105Z,44.79
2022-08-31T19:09:04.086Z,44.95
2022-08-31T19:11:40.861Z,45.08
2022-08-31T19:14:10.050Z,45.28
2022-08-31T19:16:39.687Z,45.42
2022-08-31T19:19:10.176Z,45.57
2022-08-31T19:21:39.431Z,45.69
2022-08-31T19:24:13.436Z,45.85
2022-08-31T19:26:51.743Z,46.03
2022-08-31T19:29:26.386Z,46.19
2022-08-31T19:31:57.017Z,46.41
2022-08-31T19:34:29.422Z,46.66
2022-08-31T19:36:59.940Z,46.83
2022-08-31T19:39:31.496Z,47.01
2022-08-31T19:42:07.698Z,47.22
2022-08-31T19:44:54.936Z,47.34
2022-08-31T19:47:24.434Z,47.65
2022-08-31T19:49:43.267Z,47.83
2022-08-31T19:52:12.433Z,48.05
2022-08-31T19:54:41.914Z,48.16
2022-08-31T19:57:13.649Z,48.20
2022-08-31T19:59:44.775Z,48.33
2022-08-31T20:02:14.099Z,48.54
2022-08-31T20:04:45.578Z,48.65
2022-08-31T20:07:18.770Z,48.69
2022-08-31T20:09:50.100Z,48.90
2022-08-31T20:12:19.224Z,49.09
2022-08-31T20:14:49.354Z,49.18
2022-08-31T20:17:20.084Z,49.13
2022-08-31T20:19:49.286Z,49.12
2022-08-31T20:22:28.121Z,49.04
2022-08-31T20:24:55.369Z,49.00
2022-08-31T20:27:24.429Z,49.06
2022-08-31T20:29:54.529Z,49.02
2022-08-31T20:32:25.439Z,49.08
2022-08-31T20:34:59.710Z,49.07
2022-08-31T20:37:29.516Z,49.05
2022-08-31T20:39:59.650Z,49.08
2022-08-31T20:42:29.558Z,49.01
2022-08-31T20:44:59.137Z,48.94
2022-08-31T20:47:47.718Z,49.00
2022-08-31T20:50:17.329Z,48.67
2022-08-31T20:52:46.575Z,48.62
2022-08-31T20:55:16.675Z,48.57
2022-08-31T20:57:46.697Z,48.60
2022-08-31T21:00:18.596Z,48.69
2022-08-31T21:02:49.871Z,48.82
2022-08-31T21:05:38.342Z,48.92
2022-08-31T21:07:52.369Z,49.07
2022-08-31T21:10:36.230Z,49.18
2022-08-31T21:13:00.190Z,49.22
2022-08-31T21:15:30.264Z,49.31
2022-08-31T21:18:02.259Z,49.41
2022-08-31T21:20:33.536Z,49.59
2022-08-31T21:23:02.758Z,49.69
2022-08-31T21:25:33.442Z,49.80
2022-08-31T21:28:03.964Z,49.88
2022-08-31T21:30:34.234Z,49.92
2022-08-31T21:33:05.248Z,50.00
2022-08-31T21:35:34.874Z,50.13
2022-08-31T21:38:06.827Z,50.25
2022-08-31T21:40:36.773Z,50.20
2022-08-31T21:43:07.314Z,50.33
2022-08-31T21:45:37.184Z,50.37
2022-08-31T21:48:07.463Z,50.38
2022-08-31T21:50:37.929Z,50.49
2022-08-31T21:53:08.399Z,50.71
2022-08-31T21:55:38.762Z,50.86
2022-08-31T21:58:07.884Z,50.88
2022-08-31T22:00:38.736Z,50.92
2022-08-31T22:03:08.997Z,50.65
2022-08-31T22:05:44.784Z,50.60
2022-08-31T22:08:14.907Z,50.51
2022-08-31T22:10:44.605Z,50.34
2022-08-31T22:13:16.901Z,50.22
2022-08-31T22:15:46.823Z,50.11
2022-08-31T22:18:59.109Z,49.94
2022-08-31T22:20:49.689Z,49.87
2022-08-31T22:23:19.564Z,49.90
2022-08-31T22:25:49.029Z,49.79
2022-08-31T22:28:20.021Z,49.87
2022-08-31T22:30:50.661Z,50.12
2022-08-31T22:33:20.985Z,50.00
2022-08-31T22:35:51.363Z,49.95
2022-08-31T22:38:21.749Z,50.08
2022-08-31T22:40:53.191Z,50.00
2022-08-31T22:43:22.623Z,50.08
2022-08-31T22:45:51.784Z,49.98
2022-08-31T22:48:22.308Z,50.02
2022-08-31T22:50:51.473Z,49.93
2022-08-31T22:53:21.664Z,49.83
2022-08-31T22:55:52.853Z,49.79
2022-08-31T22:58:22.190Z,50.10
2022-08-31T23:00:51.698Z,50.24
2022-08-31T23:03:22.192Z,50.11
2022-08-31T23:05:53.781Z,50.09
2022-08-31T23:08:23.772Z,49.83
2022-08-31T23:10:54.207Z,49.84
2022-08-31T23:13:25.177Z,49.95
2022-08-31T23:15:54.269Z,49.70
2022-08-31T23:18:23.561Z,49.35
2022-08-31T23:20:54.641Z,49.24
2022-08-31T23:23:24.238Z,49.15
2022-08-31T23:25:56.619Z,49.07
2022-08-31T23:28:26.098Z,49.12
2022-08-31T23:30:55.418Z,49.14
2022-08-31T23:33:26.548Z,48.97
2022-08-31T23:35:56.314Z,48.97
2022-08-31T23:38:27.345Z,49.00
2022-08-31T23:40:57.876Z,49.05
2022-08-31T23:43:28.677Z,48.99
2022-08-31T23:46:01.837Z,48.91
2022-08-31T23:48:31.352Z,48.94
2022-08-31T23:51:02.066Z,48.82
2022-08-31T23:53:33.086Z,48.61
2022-08-31T23:56:10.747Z,48.55
2022-08-31T23:58:39.918Z,48.42
